createdAt,value
2024-02-12T00:05:47.744Z,100.0
2024-02-12T00:17:47.840Z,100.0
2024-02-12T00:29:47.662Z,100.0
2024-02-12T00:41:47.640Z,100.0
2024-02-12T00:53:47.893Z,100.0
2024-02-12T01:05:47.843Z,100.0
2024-02-12T01:17:51.278Z,100.0
2024-02-12T01:29:47.691Z,100.0
2024-02-12T01:41:47.648Z,100.0
2024-02-12T01:53:47.786Z,100.0
2024-02-12T02:05:47.889Z,100.0
2024-02-12T02:17:47.770Z,100.0
2024-02-12T02:29:47.752Z,100.0
2024-02-12T02:41:47.661Z,100.0
2024-02-12T02:53:47.623Z,100.0
2024-02-12T03:05:47.722Z,100.0
2024-02-12T03:17:47.896Z,100.0
2024-02-12T03:29:47.625Z,100.0
2024-02-12T03:41:47.624Z,100.0
2024-02-12T03:53:47.702Z,100.0
2024-02-12T04:05:47.698Z,100.0
2024-02-12T04:17:48.062Z,100.0
2024-02-12T04:29:47.725Z,100.0
2024-02-12T04:41:47.662Z,100.0
2024-02-12T04:53:47.737Z,100.0
2024-02-12T05:05:47.852Z,100.0
2024-02-12T05:17:47.693Z,100.0
2024-02-12T05:29:47.749Z,100.0
2024-02-12T05:41:47.763Z,100.0
2024-02-12T05:53:47.769Z,100.0
2024-02-12T06:05:47.895Z,100.0
2024-02-12T06:17:47.773Z,100.0
2024-02-12T06:29:47.744Z,100.0
2024-02-12T06:41:47.644Z,100.0
2024-02-12T06:53:47.730Z,100.0
2024-02-12T07:05:47.855Z,100.0
2024-02-12T07:17:47.781Z,100.0
2024-02-12T07:29:47.696Z,100.0
2024-02-12T07:41:47.663Z,100.0
2024-02-12T07:53:47.765Z,100.0
2024-02-12T08:05:47.725Z,100.0
2024-02-12T08:17:47.851Z,100.0
2024-02-12T08:29:47.759Z,100.0
2024-02-12T08:41:47.692Z,100.0
2024-02-12T08:53:47.999Z,100.0
2024-02-12T09:05:47.748Z,100.0
2024-02-12T09:17:47.829Z,100.0
2024-02-12T09:29:47.777Z,100.0
2024-02-12T09:41:47.628Z,100.0
2024-02-12T09:53:47.735Z,100.0
2024-02-12T10:05:47.798Z,100.0
2024-02-12T10:17:47.869Z,100.0
2024-02-12T10:29:47.782Z,100.0
2024-02-12T10:41:47.649Z,100.0
2024-02-12T10:53:47.741Z,100.0
2024-02-12T11:05:47.943Z,97.6
2024-02-12T11:17:47.743Z,98.3
2024-02-12T11:29:47.779Z,93.6
2024-02-12T11:41:47.772Z,92.9
2024-02-12T11:53:47.794Z,91.7
2024-02-12T12:05:47.838Z,92.4
2024-02-12T12:17:47.839Z,92.4
2024-02-12T12:29:47.688Z,91.2
2024-02-12T12:41:47.874Z,91.0
2024-02-12T12:53:47.809Z,89.7
2024-02-12T13:05:47.787Z,86.7
2024-02-12T13:17:47.701Z,86.2
2024-02-12T13:29:47.972Z,85.0
2024-02-12T13:41:47.794Z,84.2
2024-02-12T13:53:47.812Z,78.5
2024-02-12T14:05:47.821Z,76.7
2024-02-12T14:17:47.917Z,72.9
2024-02-12T14:29:47.753Z,71.5
2024-02-12T14:41:47.653Z,69.4
2024-02-12T14:53:47.841Z,70.7
2024-02-12T15:05:47.639Z,70.9
2024-02-12T15:17:48.036Z,70.6
2024-02-12T15:29:47.734Z,71.4
2024-02-12T15:41:47.779Z,70.8
2024-02-12T15:53:47.836Z,71.1
2024-02-12T16:05:47.816Z,72.5
2024-02-12T16:17:48.356Z,73.4
2024-02-12T16:29:47.794Z,74.2
2024-02-12T16:41:47.728Z,76.2
2024-02-12T16:53:47.888Z,81.3
2024-02-12T17:05:47.825Z,85.0
2024-02-12T17:17:47.769Z,86.0
2024-02-12T17:29:47.667Z,87.1
2024-02-12T17:41:48.225Z,85.8
2024-02-12T17:53:47.943Z,86.5
2024-02-12T18:05:48.011Z,86.6
2024-02-12T18:17:48.536Z,86.7
2024-02-12T18:29:47.653Z,88.0
2024-02-12T18:41:47.787Z,89.2
2024-02-12T18:53:47.843Z,90.4
2024-02-12T19:05:47.806Z,92.3
2024-02-12T19:17:48.149Z,92.5
2024-02-12T19:29:47.786Z,92.6
2024-02-12T19:41:47.771Z,92.9
2024-02-12T19:53:47.680Z,93.1
2024-02-12T20:05:47.797Z,93.8
2024-02-12T20:17:47.772Z,94.1
2024-02-12T20:29:47.851Z,94.7
2024-02-12T20:41:47.699Z,95.4
2024-02-12T20:53:47.736Z,95.4
2024-02-12T21:05:47.846Z,95.9
2024-02-12T21:17:47.827Z,96.7
2024-02-12T21:29:48.134Z,96.4
2024-02-12T21:41:47.777Z,95.7
2024-02-12T21:53:47.821Z,95.5
2024-02-12T22:05:47.832Z,95.4
2024-02-12T22:17:47.743Z,95.6
2024-02-12T22:29:47.630Z,97.0
2024-02-12T22:41:47.661Z,97.0
2024-02-12T22:53:47.766Z,97.1
2024-02-12T23:05:47.866Z,98.0
2024-02-12T23:17:47.823Z,98.0
2024-02-12T23:29:47.686Z,99.2
2024-02-12T23:41:47.708Z,99.8
2024-02-12T23:53:47.728Z,100.0
